sensor_id;sensor_type;location;lat;lon;timestamp;pressure;altitude;pressure_sealevel;temperature;humidity
19210;BME280;9738;51.654;14.238;2023-04-08T00:02:14;100844.44;;;5.31;100.00
19210;BME280;9738;51.654;14.238;2023-04-08T00:04:40;100845.28;;;5.31;100.00
19210;BME280;9738;51.654;14.238;2023-04-08T00:07:06;100840.84;;;5.32;100.00
19210;BME280;9738;51.654;14.238;2023-04-08T00:09:32;100839.81;;;5.34;100.00
19210;BME280;9738;51.654;14.238;2023-04-08T00:11:58;100852.28;;;5.32;100.00
19210;BME280;9738;51.654;14.238;2023-04-08T00:14:24;100850.41;;;5.34;100.00
19210;BME280;9738;51.654;14.238;2023-04-08T00:16:50;100846.78;;;5.35;100.00
19210;BME280;9738;51.654;14.238;2023-04-08T00:19:16;100846.56;;;5.38;100.00
19210;BME280;9738;51.654;14.238;2023-04-08T00:21:42;100844.88;;;5.37;100.00
19210;BME280;9738;51.654;14.238;2023-04-08T00:24:08;100834.28;;;5.37;100.00
19210;BME280;9738;51.654;14.238;2023-04-08T00:26:34;100834.16;;;5.39;100.00
19210;BME280;9738;51.654;14.238;2023-04-08T00:29:00;100833.19;;;5.40;100.00
19210;BME280;9738;51.654;14.238;2023-04-08T00:31:26;100832.25;;;5.41;100.00
19210;BME280;9738;51.654;14.238;2023-04-08T00:33:51;100837.88;;;5.36;100.00
19210;BME280;9738;51.654;14.238;2023-04-08T00:36:18;100841.50;;;5.35;100.00
19210;BME280;9738;51.654;14.238;2023-04-08T00:38:44;100835.13;;;5.38;100.00
19210;BME280;9738;51.654;14.238;2023-04-08T00:41:09;100836.69;;;5.40;100.00
19210;BME280;9738;51.654;14.238;2023-04-08T00:43:36;100843.78;;;5.40;100.00
19210;BME280;9738;51.654;14.238;2023-04-08T00:46:02;100851.75;;;5.40;100.00
19210;BME280;9738;51.654;14.238;2023-04-08T00:48:28;100847.41;;;5.39;100.00
19210;BME280;9738;51.654;14.238;2023-04-08T00:50:54;100853.34;;;5.42;100.00
19210;BME280;9738;51.654;14.238;2023-04-08T00:53:20;100849.94;;;5.40;100.00
19210;BME280;9738;51.654;14.238;2023-04-08T00:55:46;100848.03;;;5.42;100.00
19210;BME280;9738;51.654;14.238;2023-04-08T00:58:13;100853.34;;;5.42;100.00
19210;BME280;9738;51.654;14.238;2023-04-08T01:00:42;100847.28;;;5.40;100.00
19210;BME280;9738;51.654;14.238;2023-04-08T01:03:15;100852.59;;;5.40;100.00
19210;BME280;9738;51.654;14.238;2023-04-08T01:06:03;100856.09;;;5.41;100.00
19210;BME280;9738;51.654;14.238;2023-04-08T01:08:32;100851.66;;;5.41;100.00
19210;BME280;9738;51.654;14.238;2023-04-08T01:11:01;100849.00;;;5.41;100.00
19210;BME280;9738;51.654;14.238;2023-04-08T01:13:33;100845.41;;;5.42;100.00
19210;BME280;9738;51.654;14.238;2023-04-08T01:16:02;100849.84;;;5.42;100.00
19210;BME280;9738;51.654;14.238;2023-04-08T01:18:29;100846.13;;;5.45;100.00
19210;BME280;9738;51.654;14.238;2023-04-08T01:20:58;100851.66;;;5.41;100.00
19210;BME280;9738;51.654;14.238;2023-04-08T01:23:48;100860.53;;;5.40;100.00
19210;BME280;9738;51.654;14.238;2023-04-08T01:26:23;100855.03;;;5.43;100.00
19210;BME280;9738;51.654;14.238;2023-04-08T01:28:52;100845.06;;;5.47;100.00
19210;BME280;9738;51.654;14.238;2023-04-08T01:31:20;100850.47;;;5.46;100.00
19210;BME280;9738;51.654;14.238;2023-04-08T01:33:47;100845.28;;;5.44;100.00
19210;BME280;9738;51.654;14.238;2023-04-08T01:36:16;100847.09;;;5.43;100.00
19210;BME280;9738;51.654;14.238;2023-04-08T01:38:42;100850.81;;;5.41;100.00
19210;BME280;9738;51.654;14.238;2023-04-08T01:41:10;100850.81;;;5.41;100.00
19210;BME280;9738;51.654;14.238;2023-04-08T01:43:38;100848.03;;;5.42;100.00
19210;BME280;9738;51.654;14.238;2023-04-08T01:46:06;100843.59;;;5.43;100.00
19210;BME280;9738;51.654;14.238;2023-04-08T01:48:33;100844.19;;;5.47;100.00
19210;BME280;9738;51.654;14.238;2023-04-08T01:51:02;100852.25;;;5.45;100.00
19210;BME280;9738;51.654;14.238;2023-04-08T01:53:28;100848.03;;;5.42;100.00
19210;BME280;9738;51.654;14.238;2023-04-08T01:56:06;100840.81;;;5.45;100.00
19210;BME280;9738;51.654;14.238;2023-04-08T01:58:41;100848.66;;;5.46;100.00
19210;BME280;9738;51.654;14.238;2023-04-08T02:01:10;100845.94;;;5.48;100.00
19210;BME280;9738;51.654;14.238;2023-04-08T02:03:40;100853.75;;;5.49;100.00
19210;BME280;9738;51.654;14.238;2023-04-08T02:06:07;100853.44;;;5.54;100.00
19210;BME280;9738;51.654;14.238;2023-04-08T02:08:36;100855.84;;;5.57;100.00
19210;BME280;9738;51.654;14.238;2023-04-08T02:11:02;100860.44;;;5.55;100.00
19210;BME280;9738;51.654;14.238;2023-04-08T02:13:29;100865.81;;;5.53;100.00
19210;BME280;9738;51.654;14.238;2023-04-08T02:16:02;100867.63;;;5.53;100.00
19210;BME280;9738;51.654;14.238;2023-04-08T02:18:30;100862.97;;;5.56;100.00
19210;BME280;9738;51.654;14.238;2023-04-08T02:21:08;100866.34;;;5.58;100.00
19210;BME280;9738;51.654;14.238;2023-04-08T02:23:38;100866.25;;;5.60;100.00
19210;BME280;9738;51.654;14.238;2023-04-08T02:26:07;100863.38;;;5.63;100.00
19210;BME280;9738;51.654;14.238;2023-04-08T02:28:38;100859.03;;;5.62;100.00
19210;BME280;9738;51.654;14.238;2023-04-08T02:31:04;100868.66;;;5.63;100.00
19210;BME280;9738;51.654;14.238;2023-04-08T02:33:33;100873.13;;;5.62;100.00
19210;BME280;9738;51.654;14.238;2023-04-08T02:36:00;100873.00;;;5.64;100.00
19210;BME280;9738;51.654;14.238;2023-04-08T02:38:27;100866.66;;;5.66;100.00
19210;BME280;9738;51.654;14.238;2023-04-08T02:40:55;100864.94;;;5.65;100.00
19210;BME280;9738;51.654;14.238;2023-04-08T02:43:21;100867.72;;;5.64;100.00
19210;BME280;9738;51.654;14.238;2023-04-08T02:45:51;100881.19;;;5.61;100.00
19210;BME280;9738;51.654;14.238;2023-04-08T02:48:17;100875.03;;;5.60;100.00
19210;BME280;9738;51.654;14.238;2023-04-08T02:50:43;100866.25;;;5.60;100.00
19210;BME280;9738;51.654;14.238;2023-04-08T02:53:09;100874.94;;;5.62;100.00
19210;BME280;9738;51.654;14.238;2023-04-08T02:55:35;100885.41;;;5.63;100.00
19210;BME280;9738;51.654;14.238;2023-04-08T02:58:01;100885.72;;;5.59;100.00
19210;BME280;9738;51.654;14.238;2023-04-08T03:00:27;100877.06;;;5.57;100.00
19210;BME280;9738;51.654;14.238;2023-04-08T03:02:53;100873.13;;;5.62;100.00
19210;BME280;9738;51.654;14.238;2023-04-08T03:05:19;100865.78;;;5.66;100.00
19210;BME280;9738;51.654;14.238;2023-04-08T03:07:46;100876.38;;;5.66;100.00
19210;BME280;9738;51.654;14.238;2023-04-08T03:10:11;100887.00;;;5.66;100.00
19210;BME280;9738;51.654;14.238;2023-04-08T03:12:38;100880.53;;;5.70;100.00
19210;BME280;9738;51.654;14.238;2023-04-08T03:15:04;100879.56;;;5.71;100.00
19210;BME280;9738;51.654;14.238;2023-04-08T03:17:30;100876.72;;;5.74;100.00
19210;BME280;9738;51.654;14.238;2023-04-08T03:20:00;100888.47;;;5.70;100.00
19210;BME280;9738;51.654;14.238;2023-04-08T03:22:25;100887.44;;;5.73;100.00
19210;BME280;9738;51.654;14.238;2023-04-08T03:24:51;100887.31;;;5.74;100.00
19210;BME280;9738;51.654;14.238;2023-04-08T03:27:17;100890.81;;;5.75;100.00
19210;BME280;9738;51.654;14.238;2023-04-08T03:29:43;100885.50;;;5.75;100.00
19210;BME280;9738;51.654;14.238;2023-04-08T03:32:11;100890.69;;;5.76;100.00
19210;BME280;9738;51.654;14.238;2023-04-08T03:34:37;100892.50;;;5.76;100.00
19210;BME280;9738;51.654;14.238;2023-04-08T03:37:03;100888.88;;;5.77;100.00
19210;BME280;9738;51.654;14.238;2023-04-08T03:39:29;100901.16;;;5.78;100.00
19210;BME280;9738;51.654;14.238;2023-04-08T03:41:55;100898.44;;;5.79;100.00
19210;BME280;9738;51.654;14.238;2023-04-08T03:44:21;100901.16;;;5.78;100.00
19210;BME280;9738;51.654;14.238;2023-04-08T03:46:47;100907.13;;;5.81;100.00
19210;BME280;9738;51.654;14.238;2023-04-08T03:49:13;100899.03;;;5.83;100.00
19210;BME280;9738;51.654;14.238;2023-04-08T03:51:39;100909.34;;;5.87;100.00
19210;BME280;9738;51.654;14.238;2023-04-08T03:54:05;100901.25;;;5.89;100.00
19210;BME280;9738;51.654;14.238;2023-04-08T03:56:31;100903.78;;;5.90;100.00
19210;BME280;9738;51.654;14.238;2023-04-08T03:58:57;100909.03;;;5.92;100.00
19210;BME280;9738;51.654;14.238;2023-04-08T04:01:22;100904.66;;;5.91;100.00
19210;BME280;9738;51.654;14.238;2023-04-08T04:03:49;100907.31;;;5.91;100.00
19210;BME280;9738;51.654;14.238;2023-04-08T04:06:15;100909.03;;;5.92;100.00
19210;BME280;9738;51.654;14.238;2023-04-08T04:08:41;100911.56;;;5.93;100.00
19210;BME280;9738;51.654;14.238;2023-04-08T04:11:07;100917.72;;;5.94;100.00
19210;BME280;9738;51.654;14.238;2023-04-08T04:13:33;100918.56;;;5.94;100.00
19210;BME280;9738;51.654;14.238;2023-04-08T04:15:59;100916.66;;;5.96;100.00
19210;BME280;9738;51.654;14.238;2023-04-08T04:18:25;100917.50;;;5.97;100.00
19210;BME280;9738;51.654;14.238;2023-04-08T04:20:51;100918.34;;;5.97;100.00
19210;BME280;9738;51.654;14.238;2023-04-08T04:23:16;100925.97;;;6.02;100.00
19210;BME280;9738;51.654;14.238;2023-04-08T04:25:42;100924.16;;;6.03;100.00
19210;BME280;9738;51.654;14.238;2023-04-08T04:28:08;100932.63;;;6.08;100.00
19210;BME280;9738;51.654;14.238;2023-04-08T04:30:38;100937.75;;;6.11;100.00
19210;BME280;9738;51.654;14.238;2023-04-08T04:33:05;100938.22;;;6.16;100.00
19210;BME280;9738;51.654;14.238;2023-04-08T04:35:31;100943.78;;;6.13;100.00
19210;BME280;9738;51.654;14.238;2023-04-08T04:37:57;100943.78;;;6.13;100.00
19210;BME280;9738;51.654;14.238;2023-04-08T04:40:23;100949.59;;;6.18;100.00
19210;BME280;9738;51.654;14.238;2023-04-08T04:42:49;100954.53;;;6.22;100.00
19210;BME280;9738;51.654;14.238;2023-04-08T04:45:15;100955.19;;;6.26;100.00
19210;BME280;9738;51.654;14.238;2023-04-08T04:47:41;100952.22;;;6.31;100.00
19210;BME280;9738;51.654;14.238;2023-04-08T04:50:07;100961.63;;;6.35;100.00
19210;BME280;9738;51.654;14.238;2023-04-08T04:52:34;100959.81;;;6.35;100.00
19210;BME280;9738;51.654;14.238;2023-04-08T04:55:01;100959.47;;;6.40;100.00
19210;BME280;9738;51.654;14.238;2023-04-08T04:57:27;100962.00;;;6.41;100.00
19210;BME280;9738;51.654;14.238;2023-04-08T04:59:53;100968.94;;;6.44;100.00
19210;BME280;9738;51.654;14.238;2023-04-08T05:02:19;100970.28;;;6.49;100.00
19210;BME280;9738;51.654;14.238;2023-04-08T05:04:45;100970.28;;;6.49;100.00
19210;BME280;9738;51.654;14.238;2023-04-08T05:07:10;100974.41;;;6.54;100.00
19210;BME280;9738;51.654;14.238;2023-04-08T05:09:37;100973.22;;;6.58;100.00
19210;BME280;9738;51.654;14.238;2023-04-08T05:12:03;100973.94;;;6.60;100.00
19210;BME280;9738;51.654;14.238;2023-04-08T05:14:29;100977.34;;;6.62;100.00
19210;BME280;9738;51.654;14.238;2023-04-08T05:16:56;100981.69;;;6.63;100.00
19210;BME280;9738;51.654;14.238;2023-04-08T05:19:22;100983.25;;;6.65;100.00
19210;BME280;9738;51.654;14.238;2023-04-08T05:21:47;100984.13;;;6.66;100.00
19210;BME280;9738;51.654;14.238;2023-04-08T05:24:14;100987.50;;;6.68;100.00
19210;BME280;9738;51.654;14.238;2023-04-08T05:26:40;100982.81;;;6.71;100.00
19210;BME280;9738;51.654;14.238;2023-04-08T05:29:06;100999.25;;;6.76;100.00
19210;BME280;9738;51.654;14.238;2023-04-08T05:31:32;100997.44;;;6.77;100.00
19210;BME280;9738;51.654;14.238;2023-04-08T05:33:58;100982.25;;;6.79;100.00
19210;BME280;9738;51.654;14.238;2023-04-08T05:36:24;101001.66;;;6.80;100.00
19210;BME280;9738;51.654;14.238;2023-04-08T05:38:51;101002.44;;;6.82;100.00
19210;BME280;9738;51.654;14.238;2023-04-08T05:41:17;101002.91;;;6.87;100.00
19210;BME280;9738;51.654;14.238;2023-04-08T05:43:42;101003.53;;;6.90;100.00
19210;BME280;9738;51.654;14.238;2023-04-08T05:46:09;101004.19;;;6.94;100.00
19210;BME280;9738;51.654;14.238;2023-04-08T05:48:35;101007.56;;;6.96;100.00
19210;BME280;9738;51.654;14.238;2023-04-08T05:51:01;101006.00;;;7.04;100.00
19210;BME280;9738;51.654;14.238;2023-04-08T05:53:27;101015.03;;;7.26;100.00
19210;BME280;9738;51.654;14.238;2023-04-08T05:55:53;101020.03;;;7.42;100.00
19210;BME280;9738;51.654;14.238;2023-04-08T05:58:18;101014.38;;;7.46;100.00
19210;BME280;9738;51.654;14.238;2023-04-08T06:00:45;101016.78;;;7.49;100.00
19210;BME280;9738;51.654;14.238;2023-04-08T06:03:11;101015.94;;;7.49;100.00
19210;BME280;9738;51.654;14.238;2023-04-08T06:05:36;101027.88;;;7.43;100.00
19210;BME280;9738;51.654;14.238;2023-04-08T06:08:03;101029.81;;;7.41;100.00
19210;BME280;9738;51.654;14.238;2023-04-08T06:10:28;101035.13;;;7.41;100.00
19210;BME280;9738;51.654;14.238;2023-04-08T06:12:54;101033.81;;;7.47;100.00
19210;BME280;9738;51.654;14.238;2023-04-08T06:15:20;101047.38;;;7.55;100.00
19210;BME280;9738;51.654;14.238;2023-04-08T06:17:46;101048.22;;;7.55;100.00
19210;BME280;9738;51.654;14.238;2023-04-08T06:20:12;101054.38;;;7.56;100.00
19210;BME280;9738;51.654;14.238;2023-04-08T06:22:38;101056.47;;;7.64;100.00
19210;BME280;9738;51.654;14.238;2023-04-08T06:25:04;101058.16;;;7.65;100.00
19210;BME280;9738;51.654;14.238;2023-04-08T06:27:30;101062.00;;;7.61;100.00
19210;BME280;9738;51.654;14.238;2023-04-08T06:29:57;101063.09;;;7.58;100.00
19210;BME280;9738;51.654;14.238;2023-04-08T06:32:22;101065.38;;;7.63;100.00
19210;BME280;9738;51.654;14.238;2023-04-08T06:34:48;101067.56;;;7.69;100.00
19210;BME280;9738;51.654;14.238;2023-04-08T06:37:14;101069.16;;;7.71;100.00
19210;BME280;9738;51.654;14.238;2023-04-08T06:39:40;101075.34;;;7.72;100.00
19210;BME280;9738;51.654;14.238;2023-04-08T06:42:06;101068.06;;;7.74;100.00
19210;BME280;9738;51.654;14.238;2023-04-08T06:44:32;101081.03;;;7.78;100.00
19210;BME280;9738;51.654;14.238;2023-04-08T06:46:58;101081.88;;;7.79;100.00
19210;BME280;9738;51.654;14.238;2023-04-08T06:49:24;101080.19;;;7.78;100.00
19210;BME280;9738;51.654;14.238;2023-04-08T06:51:52;101085.50;;;7.78;100.00
19210;BME280;9738;51.654;14.238;2023-04-08T06:54:17;101089.72;;;7.80;100.00
19210;BME280;9738;51.654;14.238;2023-04-08T06:56:43;101087.19;;;7.79;100.00
19210;BME280;9738;51.654;14.238;2023-04-08T06:59:09;101098.44;;;7.82;100.00
19210;BME280;9738;51.654;14.238;2023-04-08T07:01:35;101090.56;;;7.81;100.00
19210;BME280;9738;51.654;14.238;2023-04-08T07:04:01;101097.00;;;7.90;100.00
19210;BME280;9738;51.654;14.238;2023-04-08T07:06:28;101095.31;;;8.00;100.00
19210;BME280;9738;51.654;14.238;2023-04-08T07:08:53;101092.69;;;8.11;100.00
19210;BME280;9738;51.654;14.238;2023-04-08T07:11:19;101095.09;;;8.14;100.00
19210;BME280;9738;51.654;14.238;2023-04-08T07:13:46;101106.59;;;8.26;100.00
19210;BME280;9738;51.654;14.238;2023-04-08T07:16:12;101099.81;;;8.33;100.00
19210;BME280;9738;51.654;14.238;2023-04-08T07:18:37;101102.88;;;8.39;100.00
19210;BME280;9738;51.654;14.238;2023-04-08T07:21:04;101102.38;;;8.46;100.00
19210;BME280;9738;51.654;14.238;2023-04-08T07:23:30;101110.50;;;8.55;100.00
19210;BME280;9738;51.654;14.238;2023-04-08T07:26:01;101115.84;;;8.55;100.00
19210;BME280;9738;51.654;14.238;2023-04-08T07:28:28;101120.44;;;8.53;100.00
19210;BME280;9738;51.654;14.238;2023-04-08T07:30:53;101122.50;;;8.50;100.00
19210;BME280;9738;51.654;14.238;2023-04-08T07:33:19;101117.66;;;8.44;100.00
19210;BME280;9738;51.654;14.238;2023-04-08T07:35:46;101125.75;;;8.42;100.00
19210;BME280;9738;51.654;14.238;2023-04-08T07:38:12;101118.00;;;8.39;100.00
19210;BME280;9738;51.654;14.238;2023-04-08T07:40:37;101126.97;;;8.38;100.00
19210;BME280;9738;51.654;14.238;2023-04-08T07:43:04;101123.31;;;8.39;100.00
19210;BME280;9738;51.654;14.238;2023-04-08T07:45:30;101126.72;;;8.41;100.00
19210;BME280;9738;51.654;14.238;2023-04-08T07:47:55;101130.72;;;8.47;100.00
19210;BME280;9738;51.654;14.238;2023-04-08T07:50:22;101130.59;;;8.48;100.00
19210;BME280;9738;51.654;14.238;2023-04-08T07:52:48;101130.81;;;8.45;100.00
19210;BME280;9738;51.654;14.238;2023-04-08T07:55:13;101138.44;;;8.38;100.00
19210;BME280;9738;51.654;14.238;2023-04-08T07:57:40;101140.13;;;8.39;100.00
19210;BME280;9738;51.654;14.238;2023-04-08T08:00:06;101148.41;;;8.48;100.00
19210;BME280;9738;51.654;14.238;2023-04-08T08:02:33;101143.09;;;8.59;100.00
19210;BME280;9738;51.654;14.238;2023-04-08T08:05:00;101153.34;;;8.63;100.00
19210;BME280;9738;51.654;14.238;2023-04-08T08:07:25;101146.81;;;8.79;100.00
19210;BME280;9738;51.654;14.238;2023-04-08T08:09:51;101145.59;;;8.83;100.00
19210;BME280;9738;51.654;14.238;2023-04-08T08:12:18;101155.38;;;8.93;100.00
19210;BME280;9738;51.654;14.238;2023-04-08T08:14:44;101157.06;;;8.94;100.00
19210;BME280;9738;51.654;14.238;2023-04-08T08:17:09;101162.19;;;8.98;100.00
19210;BME280;9738;51.654;14.238;2023-04-08T08:19:36;101167.16;;;8.91;100.00
19210;BME280;9738;51.654;14.238;2023-04-08T08:22:01;101165.69;;;8.87;100.00
19210;BME280;9738;51.654;14.238;2023-04-08T08:24:27;101168.72;;;8.82;100.00
19210;BME280;9738;51.654;14.238;2023-04-08T08:26:53;101170.31;;;8.85;100.00
19210;BME280;9738;51.654;14.238;2023-04-08T08:29:20;101170.03;;;8.88;100.00
19210;BME280;9738;51.654;14.238;2023-04-08T08:31:45;101171.44;;;9.14;100.00
19210;BME280;9738;51.654;14.238;2023-04-08T08:34:13;101174.81;;;9.28;100.00
19210;BME280;9738;51.654;14.238;2023-04-08T08:36:39;101166.28;;;9.45;100.00
19210;BME280;9738;51.654;14.238;2023-04-08T08:39:07;101176.94;;;9.56;100.00
19210;BME280;9738;51.654;14.238;2023-04-08T08:41:33;101171.47;;;9.58;100.00
19210;BME280;9738;51.654;14.238;2023-04-08T08:44:01;101178.16;;;9.52;100.00
19210;BME280;9738;51.654;14.238;2023-04-08T08:46:29;101188.63;;;9.33;100.00
19210;BME280;9738;51.654;14.238;2023-04-08T08:48:56;101184.56;;;9.17;100.00
19210;BME280;9738;51.654;14.238;2023-04-08T08:51:23;101192.78;;;9.03;100.00
19210;BME280;9738;51.654;14.238;2023-04-08T08:53:48;101197.88;;;8.84;100.00
19210;BME280;9738;51.654;14.238;2023-04-08T08:56:15;101203.81;;;8.76;100.00
19210;BME280;9738;51.654;14.238;2023-04-08T08:58:40;101202.13;;;8.64;100.00
19210;BME280;9738;51.654;14.238;2023-04-08T09:01:29;101205.63;;;8.53;100.00
19210;BME280;9738;51.654;14.238;2023-04-08T09:04:12;101209.25;;;8.52;100.00
19210;BME280;9738;51.654;14.238;2023-04-08T09:06:40;101215.44;;;8.53;100.00
19210;BME280;9738;51.654;14.238;2023-04-08T09:09:06;101218.34;;;8.50;100.00
19210;BME280;9738;51.654;14.238;2023-04-08T09:11:40;101217.47;;;8.38;100.00
19210;BME280;9738;51.654;14.238;2023-04-08T09:16:42;101227.78;;;8.19;100.00
19210;BME280;9738;51.654;14.238;2023-04-08T09:19:10;101228.50;;;8.09;100.00
19210;BME280;9738;51.654;14.238;2023-04-08T09:21:37;101230.31;;;8.09;100.00
19210;BME280;9738;51.654;14.238;2023-04-08T09:24:03;101229.69;;;8.05;100.00
19210;BME280;9738;51.654;14.238;2023-04-08T09:26:29;101238.78;;;8.14;100.00
19210;BME280;9738;51.654;14.238;2023-04-08T09:29:08;101239.34;;;8.06;100.00
19210;BME280;9738;51.654;14.238;2023-04-08T09:31:36;101243.69;;;8.07;100.00
19210;BME280;9738;51.654;14.238;2023-04-08T09:34:15;101248.56;;;8.02;100.00
19210;BME280;9738;51.654;14.238;2023-04-08T09:36:42;101256.47;;;7.91;100.00
19210;BME280;9738;51.654;14.238;2023-04-08T09:39:11;101256.47;;;7.91;100.00
19210;BME280;9738;51.654;14.238;2023-04-08T09:41:38;101262.31;;;7.96;100.00
19210;BME280;9738;51.654;14.238;2023-04-08T09:44:06;101260.50;;;7.97;100.00
19210;BME280;9738;51.654;14.238;2023-04-08T09:46:46;101273.03;;;7.95;100.00
19210;BME280;9738;51.654;14.238;2023-04-08T09:49:33;101279.56;;;7.91;100.00
19210;BME280;9738;51.654;14.238;2023-04-08T09:52:18;101266.38;;;7.89;100.00
19210;BME280;9738;51.654;14.238;2023-04-08T09:55:02;101283.41;;;7.86;100.00
19210;BME280;9738;51.654;14.238;2023-04-08T10:00:16;101285.78;;;7.78;100.00
19210;BME280;9738;51.654;14.238;2023-04-08T10:05:25;101292.06;;;7.77;100.00
19210;BME280;9738;51.654;14.238;2023-04-08T10:07:52;101292.06;;;7.77;100.00
19210;BME280;9738;51.654;14.238;2023-04-08T10:10:18;101275.28;;;7.77;100.00
19210;BME280;9738;51.654;14.238;2023-04-08T10:12:44;101286.56;;;7.68;100.00
19210;BME280;9738;51.654;14.238;2023-04-08T10:15:30;101287.41;;;7.68;100.00
19210;BME280;9738;51.654;14.238;2023-04-08T10:23:04;101293.38;;;7.72;100.00
19210;BME280;9738;51.654;14.238;2023-04-08T10:25:31;101291.16;;;7.66;100.00
19210;BME280;9738;51.654;14.238;2023-04-08T10:27:59;101296.38;;;7.54;100.00
19210;BME280;9738;51.654;14.238;2023-04-08T10:32:57;101302.59;;;7.42;100.00
19210;BME280;9738;51.654;14.238;2023-04-08T10:35:36;101306.22;;;7.41;100.00
19210;BME280;9738;51.654;14.238;2023-04-08T10:38:02;101306.63;;;7.48;100.00
19210;BME280;9738;51.654;14.238;2023-04-08T10:40:34;101304.69;;;7.50;100.00
19210;BME280;9738;51.654;14.238;2023-04-08T10:43:04;101311.81;;;7.49;100.00
19210;BME280;9738;51.654;14.238;2023-04-08T10:45:33;101312.50;;;7.40;100.00
19210;BME280;9738;51.654;14.238;2023-04-08T10:48:19;101311.97;;;7.35;100.00
19210;BME280;9738;51.654;14.238;2023-04-08T10:51:01;101309.09;;;7.38;100.00
19210;BME280;9738;51.654;14.238;2023-04-08T10:53:35;101315.16;;;7.40;100.00
19210;BME280;9738;51.654;14.238;2023-04-08T10:58:29;101316.91;;;7.65;100.00
19210;BME280;9738;51.654;14.238;2023-04-08T11:00:54;101311.09;;;7.84;100.00
19210;BME280;9738;51.654;14.238;2023-04-08T11:03:21;101311.16;;;7.95;100.00
19210;BME280;9738;51.654;14.238;2023-04-08T11:05:47;101313.13;;;8.04;100.00
19210;BME280;9738;51.654;14.238;2023-04-08T11:08:13;101315.47;;;8.20;100.00
19210;BME280;9738;51.654;14.238;2023-04-08T11:10:39;101312.25;;;8.28;100.00
19210;BME280;9738;51.654;14.238;2023-04-08T11:13:06;101313.97;;;8.29;100.00
19210;BME280;9738;51.654;14.238;2023-04-08T11:15:34;101319.03;;;8.32;100.00
19210;BME280;9738;51.654;14.238;2023-04-08T11:18:02;101319.94;;;8.20;100.00
19210;BME280;9738;51.654;14.238;2023-04-08T11:20:29;101323.81;;;8.16;100.00
19210;BME280;9738;51.654;14.238;2023-04-08T11:22:56;101324.03;;;8.12;100.00
19210;BME280;9738;51.654;14.238;2023-04-08T11:25:22;101322.78;;;8.05;100.00
19210;BME280;9738;51.654;14.238;2023-04-08T11:27:48;101334.63;;;8.01;100.00
19210;BME280;9738;51.654;14.238;2023-04-08T11:30:14;101336.03;;;7.94;100.00
19210;BME280;9738;51.654;14.238;2023-04-08T11:32:41;101341.72;;;7.90;100.00
19210;BME280;9738;51.654;14.238;2023-04-08T11:35:07;101340.75;;;7.91;100.00
19210;BME280;9738;51.654;14.238;2023-04-08T11:37:40;101333.72;;;7.90;100.00
19210;BME280;9738;51.654;14.238;2023-04-08T11:40:11;101345.94;;;7.92;100.00
19210;BME280;9738;51.654;14.238;2023-04-08T11:42:38;101336.84;;;7.83;100.00
19210;BME280;9738;51.654;14.238;2023-04-08T11:45:12;101344.41;;;7.77;100.00
19210;BME280;9738;51.654;14.238;2023-04-08T11:47:39;101352.16;;;7.80;100.00
19210;BME280;9738;51.654;14.238;2023-04-08T11:50:05;101353.13;;;7.79;100.00
19210;BME280;9738;51.654;14.238;2023-04-08T11:52:44;101346.94;;;7.78;100.00
19210;BME280;9738;51.654;14.238;2023-04-08T11:55:29;101353.13;;;7.79;100.00
19210;BME280;9738;51.654;14.238;2023-04-08T11:57:56;101350.91;;;7.73;100.00
19210;BME280;9738;51.654;14.238;2023-04-08T12:00:22;101349.22;;;7.72;100.00
19210;BME280;9738;51.654;14.238;2023-04-08T12:02:50;101352.19;;;7.67;100.00
19210;BME280;9738;51.654;14.238;2023-04-08T12:05:16;101344.25;;;7.54;100.00
19210;BME280;9738;51.654;14.238;2023-04-08T12:07:43;101359.59;;;7.38;100.00
19210;BME280;9738;51.654;14.238;2023-04-08T12:10:09;101359.50;;;7.27;100.00
19210;BME280;9738;51.654;14.238;2023-04-08T12:12:36;101357.03;;;7.24;100.00
19210;BME280;9738;51.654;14.238;2023-04-08T12:15:03;101366.94;;;7.22;100.00
19210;BME280;9738;51.654;14.238;2023-04-08T12:17:28;101361.94;;;7.17;100.00
19210;BME280;9738;51.654;14.238;2023-04-08T12:19:55;101363.19;;;7.12;100.00
19210;BME280;9738;51.654;14.238;2023-04-08T12:22:22;101355.16;;;7.13;100.00
19210;BME280;9738;51.654;14.238;2023-04-08T12:24:47;101366.81;;;7.11;100.00
19210;BME280;9738;51.654;14.238;2023-04-08T12:27:13;101364.69;;;7.03;100.00
19210;BME280;9738;51.654;14.238;2023-04-08T12:29:39;101371.16;;;6.99;100.00
19210;BME280;9738;51.654;14.238;2023-04-08T12:32:06;101371.69;;;6.91;100.00
19210;BME280;9738;51.654;14.238;2023-04-08T12:34:32;101371.06;;;6.88;100.00
19210;BME280;9738;51.654;14.238;2023-04-08T12:36:58;101373.63;;;6.89;100.00
19210;BME280;9738;51.654;14.238;2023-04-08T12:39:24;101367.66;;;6.86;100.00
19210;BME280;9738;51.654;14.238;2023-04-08T12:41:50;101372.97;;;6.86;100.00
19210;BME280;9738;51.654;14.238;2023-04-08T12:44:16;101368.84;;;6.82;100.00
19210;BME280;9738;51.654;14.238;2023-04-08T12:46:42;101373.19;;;6.83;100.00
19210;BME280;9738;51.654;14.238;2023-04-08T12:49:08;101372.22;;;6.84;100.00
19210;BME280;9738;51.654;14.238;2023-04-08T12:51:34;101376.69;;;6.83;100.00
19210;BME280;9738;51.654;14.238;2023-04-08T12:54:01;101381.25;;;6.81;100.00
19210;BME280;9738;51.654;14.238;2023-04-08T12:56:29;101371.69;;;6.78;100.00
19210;BME280;9738;51.654;14.238;2023-04-08T12:58:57;101386.75;;;6.78;100.00
19210;BME280;9738;51.654;14.238;2023-04-08T13:01:23;101380.91;;;6.73;100.00
19210;BME280;9738;51.654;14.238;2023-04-08T13:03:49;101389.81;;;6.72;100.00
19210;BME280;9738;51.654;14.238;2023-04-08T13:06:15;101379.44;;;6.69;100.00
19210;BME280;9738;51.654;14.238;2023-04-08T13:08:41;101390.13;;;6.67;100.00
19210;BME280;9738;51.654;14.238;2023-04-08T13:11:07;101385.88;;;6.65;100.00